sensor_id;sensor_type;location;lat;lon;timestamp;temperature;humidity
17715;DHT22;8977;50.902;4.314;2022-12-18T00:01:00;2.20;99.90
17715;DHT22;8977;50.902;4.314;2022-12-18T00:03:31;2.20;99.90
17715;DHT22;8977;50.902;4.314;2022-12-18T00:06:00;2.20;99.90
17715;DHT22;8977;50.902;4.314;2022-12-18T00:08:27;2.20;99.90
17715;DHT22;8977;50.902;4.314;2022-12-18T00:10:54;2.20;99.90
17715;DHT22;8977;50.902;4.314;2022-12-18T00:13:21;2.20;99.90
17715;DHT22;8977;50.902;4.314;2022-12-18T00:15:48;2.10;99.90
17715;DHT22;8977;50.902;4.314;2022-12-18T00:18:15;2.20;99.90
17715;DHT22;8977;50.902;4.314;2022-12-18T00:20:42;2.20;99.90
17715;DHT22;8977;50.902;4.314;2022-12-18T00:23:10;2.10;99.90
17715;DHT22;8977;50.902;4.314;2022-12-18T00:25:37;2.20;99.90
17715;DHT22;8977;50.902;4.314;2022-12-18T00:28:04;2.10;99.90
17715;DHT22;8977;50.902;4.314;2022-12-18T00:30:31;2.10;99.90
17715;DHT22;8977;50.902;4.314;2022-12-18T00:32:58;2.10;99.90
17715;DHT22;8977;50.902;4.314;2022-12-18T00:35:25;2.00;99.90
17715;DHT22;8977;50.902;4.314;2022-12-18T00:37:52;2.00;99.90
17715;DHT22;8977;50.902;4.314;2022-12-18T00:40:20;2.00;99.90
17715;DHT22;8977;50.902;4.314;2022-12-18T00:42:48;2.00;99.90
17715;DHT22;8977;50.902;4.314;2022-12-18T00:45:23;1.90;99.90
17715;DHT22;8977;50.902;4.314;2022-12-18T00:47:50;2.00;99.90
17715;DHT22;8977;50.902;4.314;2022-12-18T00:50:17;2.00;99.90
17715;DHT22;8977;50.902;4.314;2022-12-18T00:52:44;2.00;99.90
17715;DHT22;8977;50.902;4.314;2022-12-18T00:55:12;2.00;99.90
17715;DHT22;8977;50.902;4.314;2022-12-18T00:57:41;1.90;99.90
17715;DHT22;8977;50.902;4.314;2022-12-18T01:00:11;1.90;99.90
17715;DHT22;8977;50.902;4.314;2022-12-18T01:02:39;1.90;99.90
17715;DHT22;8977;50.902;4.314;2022-12-18T01:05:06;1.90;99.90
17715;DHT22;8977;50.902;4.314;2022-12-18T01:07:33;1.90;99.90
17715;DHT22;8977;50.902;4.314;2022-12-18T01:10:00;1.90;99.90
17715;DHT22;8977;50.902;4.314;2022-12-18T01:12:27;1.90;99.90
17715;DHT22;8977;50.902;4.314;2022-12-18T01:14:55;1.80;99.90
17715;DHT22;8977;50.902;4.314;2022-12-18T01:17:22;1.90;99.90
17715;DHT22;8977;50.902;4.314;2022-12-18T01:19:49;1.80;99.90
17715;DHT22;8977;50.902;4.314;2022-12-18T01:22:16;1.80;99.90
17715;DHT22;8977;50.902;4.314;2022-12-18T01:24:43;1.80;99.90
17715;DHT22;8977;50.902;4.314;2022-12-18T01:27:12;1.80;99.90
17715;DHT22;8977;50.902;4.314;2022-12-18T01:29:39;1.80;99.90
17715;DHT22;8977;50.902;4.314;2022-12-18T01:32:08;1.80;99.90
17715;DHT22;8977;50.902;4.314;2022-12-18T01:34:35;1.80;99.90
17715;DHT22;8977;50.902;4.314;2022-12-18T01:37:02;1.80;99.90
17715;DHT22;8977;50.902;4.314;2022-12-18T01:39:31;1.80;99.90
17715;DHT22;8977;50.902;4.314;2022-12-18T01:42:00;1.80;99.90
17715;DHT22;8977;50.902;4.314;2022-12-18T01:45:00;1.80;99.90
17715;DHT22;8977;50.902;4.314;2022-12-18T01:47:33;1.80;99.90
17715;DHT22;8977;50.902;4.314;2022-12-18T01:50:05;1.70;99.90
17715;DHT22;8977;50.902;4.314;2022-12-18T01:52:34;1.70;99.90
17715;DHT22;8977;50.902;4.314;2022-12-18T01:55:03;1.70;99.90
17715;DHT22;8977;50.902;4.314;2022-12-18T01:57:31;1.70;99.90
17715;DHT22;8977;50.902;4.314;2022-12-18T02:00:01;1.70;99.90
17715;DHT22;8977;50.902;4.314;2022-12-18T02:02:31;1.60;99.90
17715;DHT22;8977;50.902;4.314;2022-12-18T02:04:58;1.60;99.90
17715;DHT22;8977;50.902;4.314;2022-12-18T02:07:31;1.60;99.90
17715;DHT22;8977;50.902;4.314;2022-12-18T02:10:06;1.60;99.90
17715;DHT22;8977;50.902;4.314;2022-12-18T02:12:43;1.60;99.90
17715;DHT22;8977;50.902;4.314;2022-12-18T02:15:17;1.60;99.90
17715;DHT22;8977;50.902;4.314;2022-12-18T02:17:52;1.60;99.90
17715;DHT22;8977;50.902;4.314;2022-12-18T02:20:23;1.60;99.90
17715;DHT22;8977;50.902;4.314;2022-12-18T02:23:04;1.60;99.90
17715;DHT22;8977;50.902;4.314;2022-12-18T02:28:26;1.60;99.90
17715;DHT22;8977;50.902;4.314;2022-12-18T02:30:56;1.50;99.90
17715;DHT22;8977;50.902;4.314;2022-12-18T02:33:27;1.50;99.90
17715;DHT22;8977;50.902;4.314;2022-12-18T02:35:57;1.50;99.90
17715;DHT22;8977;50.902;4.314;2022-12-18T02:38:29;1.50;99.90
17715;DHT22;8977;50.902;4.314;2022-12-18T02:41:00;1.50;99.90
17715;DHT22;8977;50.902;4.314;2022-12-18T02:43:31;1.50;99.90
17715;DHT22;8977;50.902;4.314;2022-12-18T02:46:00;1.50;99.90
17715;DHT22;8977;50.902;4.314;2022-12-18T02:48:46;1.50;99.90
17715;DHT22;8977;50.902;4.314;2022-12-18T02:51:17;1.50;99.90
17715;DHT22;8977;50.902;4.314;2022-12-18T02:53:53;1.40;99.90
17715;DHT22;8977;50.902;4.314;2022-12-18T02:56:27;1.40;99.90
17715;DHT22;8977;50.902;4.314;2022-12-18T02:58:59;1.40;99.90
17715;DHT22;8977;50.902;4.314;2022-12-18T03:01:32;1.40;99.90
17715;DHT22;8977;50.902;4.314;2022-12-18T03:04:06;1.40;99.90
17715;DHT22;8977;50.902;4.314;2022-12-18T03:06:38;1.40;99.90
17715;DHT22;8977;50.902;4.314;2022-12-18T03:09:08;1.50;99.90
17715;DHT22;8977;50.902;4.314;2022-12-18T03:11:39;1.50;99.90
17715;DHT22;8977;50.902;4.314;2022-12-18T03:14:26;1.50;99.90
17715;DHT22;8977;50.902;4.314;2022-12-18T03:16:59;1.60;99.90
17715;DHT22;8977;50.902;4.314;2022-12-18T03:19:28;1.60;99.90
17715;DHT22;8977;50.902;4.314;2022-12-18T03:21:57;1.60;99.90
17715;DHT22;8977;50.902;4.314;2022-12-18T03:24:28;1.70;99.90
17715;DHT22;8977;50.902;4.314;2022-12-18T03:27:00;1.70;99.90
17715;DHT22;8977;50.902;4.314;2022-12-18T03:29:35;1.80;99.90
17715;DHT22;8977;50.902;4.314;2022-12-18T03:32:05;1.80;99.90
17715;DHT22;8977;50.902;4.314;2022-12-18T03:34:35;1.80;99.90
17715;DHT22;8977;50.902;4.314;2022-12-18T03:37:05;1.80;99.90
17715;DHT22;8977;50.902;4.314;2022-12-18T03:39:32;1.90;99.90
17715;DHT22;8977;50.902;4.314;2022-12-18T03:42:04;1.80;99.90
17715;DHT22;8977;50.902;4.314;2022-12-18T03:44:39;1.90;99.90
17715;DHT22;8977;50.902;4.314;2022-12-18T03:47:14;1.90;99.90
17715;DHT22;8977;50.902;4.314;2022-12-18T03:49:48;1.90;99.90
17715;DHT22;8977;50.902;4.314;2022-12-18T03:52:25;2.00;99.90
17715;DHT22;8977;50.902;4.314;2022-12-18T03:54:55;1.90;99.90
17715;DHT22;8977;50.902;4.314;2022-12-18T03:57:27;1.90;99.90
17715;DHT22;8977;50.902;4.314;2022-12-18T03:59:58;1.90;99.90
17715;DHT22;8977;50.902;4.314;2022-12-18T04:02:27;1.90;99.90
17715;DHT22;8977;50.902;4.314;2022-12-18T04:04:58;1.90;99.90
17715;DHT22;8977;50.902;4.314;2022-12-18T04:07:26;1.90;99.90
17715;DHT22;8977;50.902;4.314;2022-12-18T04:09:56;1.90;99.90
17715;DHT22;8977;50.902;4.314;2022-12-18T04:12:25;1.90;99.90
17715;DHT22;8977;50.902;4.314;2022-12-18T04:14:53;1.90;99.90
17715;DHT22;8977;50.902;4.314;2022-12-18T04:17:21;1.90;99.90
17715;DHT22;8977;50.902;4.314;2022-12-18T04:19:49;1.90;99.90
17715;DHT22;8977;50.902;4.314;2022-12-18T04:22:19;2.00;99.90
17715;DHT22;8977;50.902;4.314;2022-12-18T04:24:47;1.90;99.90
17715;DHT22;8977;50.902;4.314;2022-12-18T04:27:14;2.00;99.90
17715;DHT22;8977;50.902;4.314;2022-12-18T04:29:41;2.00;99.90
17715;DHT22;8977;50.902;4.314;2022-12-18T04:32:08;2.00;99.90
17715;DHT22;8977;50.902;4.314;2022-12-18T04:34:36;2.00;99.90
17715;DHT22;8977;50.902;4.314;2022-12-18T04:37:03;2.00;99.90
17715;DHT22;8977;50.902;4.314;2022-12-18T04:39:30;2.00;99.90
17715;DHT22;8977;50.902;4.314;2022-12-18T04:42:00;2.00;99.90
17715;DHT22;8977;50.902;4.314;2022-12-18T04:44:27;2.00;99.90
17715;DHT22;8977;50.902;4.314;2022-12-18T04:46:55;2.00;99.90
17715;DHT22;8977;50.902;4.314;2022-12-18T04:49:22;1.90;99.90
17715;DHT22;8977;50.902;4.314;2022-12-18T04:51:50;1.90;99.90
17715;DHT22;8977;50.902;4.314;2022-12-18T04:54:18;1.90;99.90
17715;DHT22;8977;50.902;4.314;2022-12-18T04:56:45;1.90;99.90
17715;DHT22;8977;50.902;4.314;2022-12-18T04:59:12;1.90;99.90
17715;DHT22;8977;50.902;4.314;2022-12-18T05:01:39;1.90;99.90
17715;DHT22;8977;50.902;4.314;2022-12-18T05:04:06;1.90;99.90
17715;DHT22;8977;50.902;4.314;2022-12-18T05:06:33;1.90;99.90
17715;DHT22;8977;50.902;4.314;2022-12-18T05:09:02;1.80;99.90
17715;DHT22;8977;50.902;4.314;2022-12-18T05:11:29;1.80;99.90
17715;DHT22;8977;50.902;4.314;2022-12-18T05:13:56;1.80;99.90
17715;DHT22;8977;50.902;4.314;2022-12-18T05:16:23;1.80;99.90
17715;DHT22;8977;50.902;4.314;2022-12-18T05:18:50;1.80;99.90
17715;DHT22;8977;50.902;4.314;2022-12-18T05:21:17;1.90;99.90
17715;DHT22;8977;50.902;4.314;2022-12-18T05:23:44;1.80;99.90
17715;DHT22;8977;50.902;4.314;2022-12-18T05:26:15;1.80;99.90
17715;DHT22;8977;50.902;4.314;2022-12-18T05:28:43;1.80;99.90
17715;DHT22;8977;50.902;4.314;2022-12-18T05:31:10;1.80;99.90
17715;DHT22;8977;50.902;4.314;2022-12-18T05:33:37;1.90;99.90
17715;DHT22;8977;50.902;4.314;2022-12-18T05:36:06;1.90;99.90
17715;DHT22;8977;50.902;4.314;2022-12-18T05:38:35;1.90;99.90
17715;DHT22;8977;50.902;4.314;2022-12-18T05:41:03;1.90;99.90
17715;DHT22;8977;50.902;4.314;2022-12-18T05:43:31;1.90;99.90
17715;DHT22;8977;50.902;4.314;2022-12-18T05:46:03;1.90;99.90
17715;DHT22;8977;50.902;4.314;2022-12-18T05:48:30;1.90;99.90
17715;DHT22;8977;50.902;4.314;2022-12-18T05:51:03;1.90;99.90
17715;DHT22;8977;50.902;4.314;2022-12-18T05:53:31;1.90;99.90
17715;DHT22;8977;50.902;4.314;2022-12-18T05:56:00;1.90;99.90
17715;DHT22;8977;50.902;4.314;2022-12-18T05:58:27;1.90;99.90
17715;DHT22;8977;50.902;4.314;2022-12-18T06:00:55;2.00;99.90
17715;DHT22;8977;50.902;4.314;2022-12-18T06:03:22;1.90;99.90
17715;DHT22;8977;50.902;4.314;2022-12-18T06:05:49;1.90;99.90
17715;DHT22;8977;50.902;4.314;2022-12-18T06:08:16;1.90;99.90
17715;DHT22;8977;50.902;4.314;2022-12-18T06:10:49;1.90;99.90
17715;DHT22;8977;50.902;4.314;2022-12-18T06:13:16;1.90;99.90
17715;DHT22;8977;50.902;4.314;2022-12-18T06:15:43;1.90;99.90
17715;DHT22;8977;50.902;4.314;2022-12-18T06:18:11;1.90;99.90
17715;DHT22;8977;50.902;4.314;2022-12-18T06:20:38;1.90;99.90
17715;DHT22;8977;50.902;4.314;2022-12-18T06:23:07;1.90;99.90
17715;DHT22;8977;50.902;4.314;2022-12-18T06:25:37;1.90;99.90
17715;DHT22;8977;50.902;4.314;2022-12-18T06:28:04;1.90;99.90
17715;DHT22;8977;50.902;4.314;2022-12-18T06:30:31;1.90;99.90
17715;DHT22;8977;50.902;4.314;2022-12-18T06:32:58;1.90;99.90
17715;DHT22;8977;50.902;4.314;2022-12-18T06:35:27;1.80;99.90
17715;DHT22;8977;50.902;4.314;2022-12-18T06:37:53;1.80;99.90
17715;DHT22;8977;50.902;4.314;2022-12-18T06:40:20;1.80;99.90
17715;DHT22;8977;50.902;4.314;2022-12-18T06:42:48;1.80;99.90
17715;DHT22;8977;50.902;4.314;2022-12-18T06:45:15;1.80;99.90
17715;DHT22;8977;50.902;4.314;2022-12-18T06:47:42;1.70;99.90
17715;DHT22;8977;50.902;4.314;2022-12-18T06:50:09;1.80;99.90
17715;DHT22;8977;50.902;4.314;2022-12-18T06:52:37;1.80;99.90
17715;DHT22;8977;50.902;4.314;2022-12-18T06:55:08;1.70;99.90
17715;DHT22;8977;50.902;4.314;2022-12-18T06:57:35;1.80;99.90
17715;DHT22;8977;50.902;4.314;2022-12-18T07:00:03;1.70;99.90
17715;DHT22;8977;50.902;4.314;2022-12-18T07:02:31;1.70;99.90
17715;DHT22;8977;50.902;4.314;2022-12-18T07:04:58;1.70;99.90
17715;DHT22;8977;50.902;4.314;2022-12-18T07:07:25;1.60;99.90
17715;DHT22;8977;50.902;4.314;2022-12-18T07:09:53;1.60;99.90
17715;DHT22;8977;50.902;4.314;2022-12-18T07:12:20;1.60;99.90
17715;DHT22;8977;50.902;4.314;2022-12-18T07:14:47;1.60;99.90
17715;DHT22;8977;50.902;4.314;2022-12-18T07:17:13;1.60;99.90
17715;DHT22;8977;50.902;4.314;2022-12-18T07:19:40;1.60;99.90
17715;DHT22;8977;50.902;4.314;2022-12-18T07:22:07;1.60;99.90
17715;DHT22;8977;50.902;4.314;2022-12-18T07:24:34;1.70;99.90
17715;DHT22;8977;50.902;4.314;2022-12-18T07:27:02;1.70;99.90
17715;DHT22;8977;50.902;4.314;2022-12-18T07:29:29;1.70;99.90
17715;DHT22;8977;50.902;4.314;2022-12-18T07:31:56;1.70;99.90
17715;DHT22;8977;50.902;4.314;2022-12-18T07:34:23;1.80;99.90
17715;DHT22;8977;50.902;4.314;2022-12-18T07:36:50;1.90;99.90
17715;DHT22;8977;50.902;4.314;2022-12-18T07:39:16;1.80;99.90
17715;DHT22;8977;50.902;4.314;2022-12-18T07:41:43;1.90;99.90
17715;DHT22;8977;50.902;4.314;2022-12-18T07:44:32;1.90;99.90
17715;DHT22;8977;50.902;4.314;2022-12-18T07:46:59;1.90;99.90
17715;DHT22;8977;50.902;4.314;2022-12-18T07:49:26;1.90;99.90
17715;DHT22;8977;50.902;4.314;2022-12-18T07:51:54;1.90;99.90
17715;DHT22;8977;50.902;4.314;2022-12-18T07:54:21;1.80;99.90
17715;DHT22;8977;50.902;4.314;2022-12-18T07:56:48;1.80;99.90
17715;DHT22;8977;50.902;4.314;2022-12-18T07:59:17;1.80;99.90
17715;DHT22;8977;50.902;4.314;2022-12-18T08:01:45;1.80;99.90
17715;DHT22;8977;50.902;4.314;2022-12-18T08:04:12;1.80;99.90
17715;DHT22;8977;50.902;4.314;2022-12-18T08:06:39;1.80;99.90
17715;DHT22;8977;50.902;4.314;2022-12-18T08:09:06;1.90;99.90
17715;DHT22;8977;50.902;4.314;2022-12-18T08:11:34;1.90;99.90
17715;DHT22;8977;50.902;4.314;2022-12-18T08:14:01;1.90;99.90
17715;DHT22;8977;50.902;4.314;2022-12-18T08:16:28;1.80;99.90
17715;DHT22;8977;50.902;4.314;2022-12-18T08:18:57;1.80;99.90
17715;DHT22;8977;50.902;4.314;2022-12-18T08:21:25;1.80;99.90
17715;DHT22;8977;50.902;4.314;2022-12-18T08:23:54;1.90;99.90
17715;DHT22;8977;50.902;4.314;2022-12-18T08:26:22;1.90;99.90
17715;DHT22;8977;50.902;4.314;2022-12-18T08:28:49;1.90;99.90
17715;DHT22;8977;50.902;4.314;2022-12-18T08:31:17;1.90;99.90
17715;DHT22;8977;50.902;4.314;2022-12-18T08:33:44;1.90;99.90
17715;DHT22;8977;50.902;4.314;2022-12-18T08:36:12;2.00;99.90
17715;DHT22;8977;50.902;4.314;2022-12-18T08:38:39;2.00;99.90
17715;DHT22;8977;50.902;4.314;2022-12-18T08:41:08;2.00;99.90
17715;DHT22;8977;50.902;4.314;2022-12-18T08:43:35;2.10;99.90
17715;DHT22;8977;50.902;4.314;2022-12-18T08:46:21;2.10;99.90
17715;DHT22;8977;50.902;4.314;2022-12-18T08:48:50;2.10;99.90
17715;DHT22;8977;50.902;4.314;2022-12-18T08:51:19;2.20;99.90
17715;DHT22;8977;50.902;4.314;2022-12-18T08:53:46;2.20;99.90
17715;DHT22;8977;50.902;4.314;2022-12-18T08:56:14;2.20;99.90
17715;DHT22;8977;50.902;4.314;2022-12-18T08:58:42;2.30;99.90
17715;DHT22;8977;50.902;4.314;2022-12-18T09:01:11;2.30;99.90
17715;DHT22;8977;50.902;4.314;2022-12-18T09:03:41;2.30;99.90
17715;DHT22;8977;50.902;4.314;2022-12-18T09:06:08;2.30;99.90
17715;DHT22;8977;50.902;4.314;2022-12-18T09:08:36;2.40;99.90
17715;DHT22;8977;50.902;4.314;2022-12-18T09:11:03;2.40;99.90
17715;DHT22;8977;50.902;4.314;2022-12-18T09:13:30;2.50;99.90
17715;DHT22;8977;50.902;4.314;2022-12-18T09:15:57;2.50;99.90
17715;DHT22;8977;50.902;4.314;2022-12-18T09:18:24;2.60;99.90
17715;DHT22;8977;50.902;4.314;2022-12-18T09:20:51;2.60;99.90
17715;DHT22;8977;50.902;4.314;2022-12-18T09:23:18;2.60;99.90
17715;DHT22;8977;50.902;4.314;2022-12-18T09:25:48;2.70;99.90
17715;DHT22;8977;50.902;4.314;2022-12-18T09:28:16;2.70;99.90
17715;DHT22;8977;50.902;4.314;2022-12-18T09:30:46;2.80;99.90
17715;DHT22;8977;50.902;4.314;2022-12-18T09:33:13;2.80;99.90
17715;DHT22;8977;50.902;4.314;2022-12-18T09:35:41;2.90;99.90
17715;DHT22;8977;50.902;4.314;2022-12-18T09:38:12;2.90;99.90
17715;DHT22;8977;50.902;4.314;2022-12-18T09:40:42;2.90;99.90
17715;DHT22;8977;50.902;4.314;2022-12-18T09:43:16;2.90;99.90
17715;DHT22;8977;50.902;4.314;2022-12-18T09:45:47;2.90;99.90
17715;DHT22;8977;50.902;4.314;2022-12-18T09:48:19;3.00;99.90
17715;DHT22;8977;50.902;4.314;2022-12-18T09:50:48;3.00;99.90
17715;DHT22;8977;50.902;4.314;2022-12-18T09:53:19;3.00;99.90
17715;DHT22;8977;50.902;4.314;2022-12-18T09:55:51;3.00;99.90
17715;DHT22;8977;50.902;4.314;2022-12-18T09:58:29;3.10;99.90
17715;DHT22;8977;50.902;4.314;2022-12-18T10:00:58;3.10;99.90
17715;DHT22;8977;50.902;4.314;2022-12-18T10:03:25;3.10;99.90
17715;DHT22;8977;50.902;4.314;2022-12-18T10:05:59;3.10;99.90
17715;DHT22;8977;50.902;4.314;2022-12-18T10:08:36;3.10;99.90
17715;DHT22;8977;50.902;4.314;2022-12-18T10:11:21;3.10;99.90
17715;DHT22;8977;50.902;4.314;2022-12-18T10:13:53;3.20;99.90
17715;DHT22;8977;50.902;4.314;2022-12-18T10:16:27;3.20;99.90
17715;DHT22;8977;50.902;4.314;2022-12-18T10:19:06;3.20;99.90
17715;DHT22;8977;50.902;4.314;2022-12-18T10:21:44;3.20;99.90
17715;DHT22;8977;50.902;4.314;2022-12-18T10:24:21;3.30;99.90
17715;DHT22;8977;50.902;4.314;2022-12-18T10:26:52;3.30;99.90
17715;DHT22;8977;50.902;4.314;2022-12-18T10:29:21;3.30;99.90
17715;DHT22;8977;50.902;4.314;2022-12-18T10:31:47;3.30;99.90
17715;DHT22;8977;50.902;4.314;2022-12-18T10:34:16;3.30;99.90
17715;DHT22;8977;50.902;4.314;2022-12-18T10:36:43;3.30;99.90
17715;DHT22;8977;50.902;4.314;2022-12-18T10:39:18;3.40;99.90
17715;DHT22;8977;50.902;4.314;2022-12-18T10:41:45;3.40;99.90
17715;DHT22;8977;50.902;4.314;2022-12-18T10:44:17;3.40;99.90
17715;DHT22;8977;50.902;4.314;2022-12-18T10:46:49;3.50;99.90
17715;DHT22;8977;50.902;4.314;2022-12-18T10:49:22;3.50;99.90
17715;DHT22;8977;50.902;4.314;2022-12-18T10:51:50;3.50;99.90
17715;DHT22;8977;50.902;4.314;2022-12-18T10:54:22;3.50;99.90
17715;DHT22;8977;50.902;4.314;2022-12-18T10:56:50;3.60;99.90
17715;DHT22;8977;50.902;4.314;2022-12-18T10:59:19;3.60;99.90
17715;DHT22;8977;50.902;4.314;2022-12-18T11:01:50;3.60;99.90
17715;DHT22;8977;50.902;4.314;2022-12-18T11:04:20;3.60;99.90
17715;DHT22;8977;50.902;4.314;2022-12-18T11:06:56;3.60;99.90
17715;DHT22;8977;50.902;4.314;2022-12-18T11:09:24;3.70;99.90
17715;DHT22;8977;50.902;4.314;2022-12-18T11:11:52;3.70;99.90
17715;DHT22;8977;50.902;4.314;2022-12-18T11:14:23;3.70;99.90
17715;DHT22;8977;50.902;4.314;2022-12-18T11:16:53;3.70;99.90
17715;DHT22;8977;50.902;4.314;2022-12-18T11:19:28;3.70;99.90
17715;DHT22;8977;50.902;4.314;2022-12-18T11:21:56;3.80;99.90
17715;DHT22;8977;50.902;4.314;2022-12-18T11:24:27;3.70;99.90
17715;DHT22;8977;50.902;4.314;2022-12-18T11:26:55;3.70;99.90
17715;DHT22;8977;50.902;4.314;2022-12-18T11:29:27;3.80;99.90
17715;DHT22;8977;50.902;4.314;2022-12-18T11:32:27;3.80;99.90
17715;DHT22;8977;50.902;4.314;2022-12-18T11:35:01;3.80;99.90
17715;DHT22;8977;50.902;4.314;2022-12-18T11:37:31;3.80;99.90
17715;DHT22;8977;50.902;4.314;2022-12-18T11:40:05;3.90;99.90
17715;DHT22;8977;50.902;4.314;2022-12-18T11:42:38;3.80;99.90
17715;DHT22;8977;50.902;4.314;2022-12-18T11:45:26;3.90;99.90
17715;DHT22;8977;50.902;4.314;2022-12-18T11:47:58;3.90;99.90
17715;DHT22;8977;50.902;4.314;2022-12-18T11:50:31;3.90;99.90
17715;DHT22;8977;50.902;4.314;2022-12-18T11:52:58;3.90;99.90
17715;DHT22;8977;50.902;4.314;2022-12-18T11:55:33;3.90;99.90
17715;DHT22;8977;50.902;4.314;2022-12-18T11:58:10;4.00;99.90
17715;DHT22;8977;50.902;4.314;2022-12-18T12:00:44;3.90;99.90
17715;DHT22;8977;50.902;4.314;2022-12-18T12:03:24;3.90;99.90
17715;DHT22;8977;50.902;4.314;2022-12-18T12:06:08;3.90;99.90
17715;DHT22;8977;50.902;4.314;2022-12-18T12:08:50;4.00;99.90
17715;DHT22;8977;50.902;4.314;2022-12-18T12:11:24;4.00;99.90
17715;DHT22;8977;50.902;4.314;2022-12-18T12:14:05;4.00;99.90
17715;DHT22;8977;50.902;4.314;2022-12-18T12:16:39;4.00;99.90
17715;DHT22;8977;50.902;4.314;2022-12-18T12:19:24;4.00;99.90
17715;DHT22;8977;50.902;4.314;2022-12-18T12:22:00;4.00;99.90
17715;DHT22;8977;50.902;4.314;2022-12-18T12:24:38;4.10;99.90
17715;DHT22;8977;50.902;4.314;2022-12-18T12:27:10;4.10;99.90
17715;DHT22;8977;50.902;4.314;2022-12-18T12:29:52;4.10;99.90
17715;DHT22;8977;50.902;4.314;2022-12-18T12:32:29;4.10;99.90
17715;DHT22;8977;50.902;4.314;2022-12-18T12:35:12;4.10;99.90
17715;DHT22;8977;50.902;4.314;2022-12-18T12:37:47;4.10;99.90
17715;DHT22;8977;50.902;4.314;2022-12-18T12:40:21;4.10;99.90
17715;DHT22;8977;50.902;4.314;2022-12-18T12:42:54;4.10;99.90
17715;DHT22;8977;50.902;4.314;2022-12-18T12:45:43;4.40;99.90
17715;DHT22;8977;50.902;4.314;2022-12-18T12:48:18;4.30;99.90
17715;DHT22;8977;50.902;4.314;2022-12-18T12:50:48;4.30;99.90
17715;DHT22;8977;50.902;4.314;2022-12-18T12:53:23;4.30;99.90
17715;DHT22;8977;50.902;4.314;2022-12-18T12:55:52;4.30;99.90
17715;DHT22;8977;50.902;4.314;2022-12-18T12:58:26;4.30;99.90
17715;DHT22;8977;50.902;4.314;2022-12-18T13:00:58;4.30;99.90
17715;DHT22;8977;50.902;4.314;2022-12-18T13:03:41;4.30;99.90
17715;DHT22;8977;50.902;4.314;2022-12-18T13:06:16;4.30;99.90
17715;DHT22;8977;50.902;4.314;2022-12-18T13:08:56;4.30;99.90
17715;DHT22;8977;50.902;4.314;2022-12-18T13:11:37;4.30;99.90
17715;DHT22;8977;50.902;4.314;2022-12-18T13:14:24;4.30;99.90
17715;DHT22;8977;50.902;4.314;2022-12-18T13:17:21;4.30;99.90
17715;DHT22;8977;50.902;4.314;2022-12-18T13:19:52;4.30;99.90
17715;DHT22;8977;50.902;4.314;2022-12-18T13:22:34;4.30;99.90
17715;DHT22;8977;50.902;4.314;2022-12-18T13:25:01;4.30;99.90
17715;DHT22;8977;50.902;4.314;2022-12-18T13:28:11;4.30;99.90
17715;DHT22;8977;50.902;4.314;2022-12-18T13:30:47;4.40;99.90
17715;DHT22;8977;50.902;4.314;2022-12-18T13:33:47;4.30;99.90
17715;DHT22;8977;50.902;4.314;2022-12-18T13:36:25;4.30;99.90
17715;DHT22;8977;50.902;4.314;2022-12-18T13:39:24;4.30;99.90
17715;DHT22;8977;50.902;4.314;2022-12-18T13:41:53;4.30;99.90
17715;DHT22;8977;50.902;4.314;2022-12-18T13:44:28;4.30;99.90
17715;DHT22;8977;50.902;4.314;2022-12-18T13:46:57;4.30;99.90
17715;DHT22;8977;50.902;4.314;2022-12-18T13:49:27;4.40;99.90
17715;DHT22;8977;50.902;4.314;2022-12-18T13:51:57;4.30;99.90
17715;DHT22;8977;50.902;4.314;2022-12-18T13:54:30;4.40;99.90
17715;DHT22;8977;50.902;4.314;2022-12-18T13:56:59;4.40;99.90
17715;DHT22;8977;50.902;4.314;2022-12-18T13:59:34;4.30;99.90
17715;DHT22;8977;50.902;4.314;2022-12-18T14:02:11;4.40;99.90
17715;DHT22;8977;50.902;4.314;2022-12-18T14:04:39;4.40;99.90
17715;DHT22;8977;50.902;4.314;2022-12-18T14:07:09;4.30;99.90
17715;DHT22;8977;50.902;4.314;2022-12-18T14:09:41;4.30;99.90
17715;DHT22;8977;50.902;4.314;2022-12-18T14:12:15;4.40;99.90
17715;DHT22;8977;50.902;4.314;2022-12-18T14:15:00;4.30;99.90
17715;DHT22;8977;50.902;4.314;2022-12-18T14:17:31;4.30;99.90
17715;DHT22;8977;50.902;4.314;2022-12-18T14:19:58;4.40;99.90
17715;DHT22;8977;50.902;4.314;2022-12-18T14:22:26;4.40;99.90
17715;DHT22;8977;50.902;4.314;2022-12-18T14:25:18;4.40;99.90
17715;DHT22;8977;50.902;4.314;2022-12-18T14:27:47;4.40;99.90
17715;DHT22;8977;50.902;4.314;2022-12-18T14:30:33;4.30;99.90
17715;DHT22;8977;50.902;4.314;2022-12-18T14:33:09;4.40;99.90
17715;DHT22;8977;50.902;4.314;2022-12-18T14:35:38;4.30;99.90
17715;DHT22;8977;50.902;4.314;2022-12-18T14:38:20;4.30;99.90
17715;DHT22;8977;50.902;4.314;2022-12-18T14:40:52;4.40;99.90
17715;DHT22;8977;50.902;4.314;2022-12-18T14:43:19;4.50;99.90
17715;DHT22;8977;50.902;4.314;2022-12-18T14:45:46;4.50;99.90
17715;DHT22;8977;50.902;4.314;2022-12-18T14:48:16;4.50;99.90
17715;DHT22;8977;50.902;4.314;2022-12-18T14:50:44;4.50;99.90
17715;DHT22;8977;50.902;4.314;2022-12-18T14:53:21;4.40;99.90
17715;DHT22;8977;50.902;4.314;2022-12-18T14:55:50;4.40;99.90
17715;DHT22;8977;50.902;4.314;2022-12-18T14:58:18;4.40;99.90
17715;DHT22;8977;50.902;4.314;2022-12-18T15:00:45;4.40;99.90
17715;DHT22;8977;50.902;4.314;2022-12-18T15:03:17;4.40;99.90
17715;DHT22;8977;50.902;4.314;2022-12-18T15:05:45;4.40;99.90
17715;DHT22;8977;50.902;4.314;2022-12-18T15:08:34;4.40;99.90
17715;DHT22;8977;50.902;4.314;2022-12-18T15:11:03;4.40;99.90
17715;DHT22;8977;50.902;4.314;2022-12-18T15:13:30;4.40;99.90
17715;DHT22;8977;50.902;4.314;2022-12-18T15:16:00;4.40;99.90
17715;DHT22;8977;50.902;4.314;2022-12-18T15:18:32;4.40;99.90
17715;DHT22;8977;50.902;4.314;2022-12-18T15:21:07;4.40;99.90
17715;DHT22;8977;50.902;4.314;2022-12-18T15:23:36;4.40;99.90
17715;DHT22;8977;50.902;4.314;2022-12-18T15:26:07;4.30;99.90
17715;DHT22;8977;50.902;4.314;2022-12-18T15:28:38;4.40;99.90
17715;DHT22;8977;50.902;4.314;2022-12-18T15:31:21;4.40;99.90
17715;DHT22;8977;50.902;4.314;2022-12-18T15:34:13;4.40;99.90
17715;DHT22;8977;50.902;4.314;2022-12-18T15:36:40;4.40;99.90
17715;DHT22;8977;50.902;4.314;2022-12-18T15:39:11;4.40;99.90
17715;DHT22;8977;50.902;4.314;2022-12-18T15:41:40;4.40;99.90
17715;DHT22;8977;50.902;4.314;2022-12-18T15:44:27;4.40;99.90
17715;DHT22;8977;50.902;4.314;2022-12-18T15:46:53;4.40;99.90
17715;DHT22;8977;50.902;4.314;2022-12-18T15:49:20;4.40;99.90
17715;DHT22;8977;50.902;4.314;2022-12-18T15:51:49;4.40;99.90
17715;DHT22;8977;50.902;4.314;2022-12-18T15:54:18;4.40;99.90
17715;DHT22;8977;50.902;4.314;2022-12-18T15:57:09;4.40;99.90
17715;DHT22;8977;50.902;4.314;2022-12-18T15:59:52;4.40;99.90
17715;DHT22;8977;50.902;4.314;2022-12-18T16:02:23;4.40;99.90
17715;DHT22;8977;50.902;4.314;2022-12-18T16:04:51;4.40;99.90
17715;DHT22;8977;50.902;4.314;2022-12-18T16:07:19;4.40;99.90
17715;DHT22;8977;50.902;4.314;2022-12-18T16:09:46;4.40;99.90
17715;DHT22;8977;50.902;4.314;2022-12-18T16:12:17;4.40;99.90
17715;DHT22;8977;50.902;4.314;2022-12-18T16:14:45;4.50;99.90
17715;DHT22;8977;50.902;4.314;2022-12-18T16:17:13;4.40;99.90
17715;DHT22;8977;50.902;4.314;2022-12-18T16:19:40;4.40;99.90
17715;DHT22;8977;50.902;4.314;2022-12-18T16:22:18;4.40;99.90
17715;DHT22;8977;50.902;4.314;2022-12-18T16:24:45;4.40;99.90
17715;DHT22;8977;50.902;4.314;2022-12-18T16:27:12;4.50;99.90
17715;DHT22;8977;50.902;4.314;2022-12-18T16:29:40;4.50;99.90